Terminal Aerodrome Forecast
Issued by NWS

Home | Current Version | Previous Version | Text Only | Print | Product List | Glossary On
Versions: 1 2 3 4 5 6 7 8 9 10 11 12 13 14
000
FTUS45 KPIH 210520
TAFSUN
TAF
KSUN 210520Z 2106/2212 32011KT P6SM SKC
     FM211700 15008KT P6SM SKC
     FM212200 21010KT P6SM FEW090
     FM220400 30011KT P6SM SKC
      AMD LTD TO CLD VIS AND WIND TIL 211300=

USA.gov is the U.S. government's official web portal to all federal, state and local government web resources and services.